Time;durP1;ratioP1;P1;durP2;ratioP2;P2;SDS_P1;SDS_P2;PMS_P1;PMS_P2;Temp;Humidity;BMP_temperature;BMP_pressure;BME280_temperature;BME280_humidity;BME280_pressure;Samples;Min_cycle;Max_cycle;Signal;HPM_P1;HPM_P2
2023/05/24 00:00:11;;;;;;;4.57;4.28;;;;;;;;;;4984863;28;20047;-63
2023/05/24 00:02:40;;;;;;;;;;;;;;;;;;5007340;28;20037;-63
2023/05/24 00:05:09;;;;;;;5.68;4.85;;;;;;;;;;5006670;28;19936;-63
2023/05/24 00:07:36;;;;;;;5.55;5.15;;;;;;;;;;4997531;28;20045;-63
2023/05/24 00:10:03;;;;;;;4.55;4.15;;;;;;;;;;5003412;28;20049;-63
2023/05/24 00:12:29;;;;;;;4.45;4.07;;;;;;;;;;5001666;28;20089;-63
2023/05/24 00:14:54;;;;;;;6.32;4.50;;;;;;;;;;4996170;28;20062;-63
2023/05/24 00:17:20;;;;;;;4.97;4.57;;;;;;;;;;5005092;28;20038;-63
2023/05/24 00:19:46;;;;;;;5.10;4.63;;;;;;;;;;5003161;28;20123;-63
2023/05/24 00:22:12;;;;;;;5.47;4.97;;;;;;;;;;5002176;28;20120;-63
2023/05/24 00:24:39;;;;;;;5.82;4.55;;;;;;;;;;5006659;28;20049;-64
2023/05/24 00:27:05;;;;;;;6.80;4.50;;;;;;;;;;5001161;28;20048;-64
2023/05/24 00:29:31;;;;;;;4.85;4.55;;;;;;;;;;5005509;28;20030;-64
2023/05/24 00:31:58;;;;;;;5.95;5.35;;;;;;;;;;5007860;28;20038;-64
2023/05/24 00:34:24;;;;;;;5.15;4.75;;;;;;;;;;4982626;28;20071;-64
2023/05/24 00:36:50;;;;;;;5.07;4.68;;;;;;;;;;4985210;28;20056;-63
2023/05/24 00:39:15;;;;;;;5.93;4.88;;;;;;;;;;4977912;28;20061;-63
2023/05/24 00:41:41;;;;;;;4.75;4.35;;;;;;;;;;5001133;28;20033;-63
2023/05/24 00:44:09;;;;;;;4.85;4.55;;;;;;;;;;4985758;28;20456;-63
2023/05/24 00:46:35;;;;;;;4.95;4.35;;;;;;;;;;4998010;28;20525;-63
2023/05/24 00:49:01;;;;;;;5.75;5.15;;;;;;;;;;4986210;28;20061;-64
2023/05/24 00:51:27;;;;;;;4.72;4.40;;;;;;;;;;5002015;28;20473;-63
2023/05/24 00:53:53;;;;;;;6.75;4.53;;;;;;;;;;4981855;28;20034;-62
2023/05/24 00:56:19;;;;;;;6.45;4.60;;;;;;;;;;5000190;28;20038;-63
2023/05/24 00:58:45;;;;;;;4.50;4.07;;;;;;;;;;4986464;28;20122;-63
2023/05/24 01:01:11;;;;;;;4.13;3.83;;;;;;;;;;4988686;28;20049;-63
2023/05/24 01:03:38;;;;;;;4.70;4.30;;;;;;;;;;4981687;28;20117;-62
2023/05/24 01:06:06;;;;;;;7.97;4.45;;;;;;;;;;4984829;28;20150;-63
2023/05/24 01:08:38;;;;;;;6.03;4.57;;;;;;;;;;4981582;28;20035;-63
2023/05/24 01:11:04;;;;;;;5.38;4.60;;;;;;;;;;4978831;28;20036;-63
2023/05/24 01:13:41;;;;;;;5.95;4.43;;;;;;;;;;5002217;28;20423;-63
2023/05/24 01:16:11;;;;;;;4.30;4.00;;;;;;;;;;5006459;28;20097;-63
2023/05/24 01:18:47;;;;;;;4.35;4.05;;;;;;;;;;4983602;28;20041;-63
2023/05/24 01:21:33;;;;;;;5.22;4.40;;;;;;;;;;4979621;28;20037;-63
2023/05/24 01:24:22;;;;;;;5.03;4.57;;;;;;;;;;4989458;28;20045;-63
2023/05/24 01:27:06;;;;;;;4.15;3.80;;;;;;;;;;4997645;28;20034;-62
2023/05/24 01:29:35;;;;;;;5.32;4.72;;;;;;;;;;4997161;28;20077;-63
2023/05/24 01:32:01;;;;;;;7.25;4.35;;;;;;;;;;4984972;28;20498;-63
2023/05/24 01:34:27;;;;;;;5.63;4.25;;;;;;;;;;4998074;28;20033;-61
2023/05/24 01:36:53;;;;;;;4.30;4.00;;;;;;;;;;5003401;28;20478;-62
2023/05/24 01:39:20;;;;;;;6.25;4.50;;;;;;;;;;5002264;28;20029;-63
2023/05/24 01:42:10;;;;;;;4.95;4.40;;;;;;;;;;4982452;28;20105;-62
2023/05/24 01:44:54;;;;;;;3.90;3.60;;;;;;;;;;4985295;28;20084;-64
2023/05/24 01:47:28;;;;;;;4.93;4.38;;;;;;;;;;5000062;28;20475;-63
2023/05/24 01:50:05;;;;;;;6.95;4.32;;;;;;;;;;4996608;28;20722;-63
2023/05/24 01:52:34;;;;;;;4.60;4.20;;;;;;;;;;5006714;28;20032;-63
2023/05/24 01:55:03;;;;;;;4.40;4.00;;;;;;;;;;5003055;28;20038;-63
2023/05/24 01:57:31;;;;;;;5.60;4.55;;;;;;;;;;4980287;28;20038;-63
2023/05/24 02:00:00;;;;;;;5.05;4.65;;;;;;;;;;4980607;28;20528;-63
2023/05/24 02:02:26;;;;;;;5.10;4.28;;;;;;;;;;5003473;28;20121;-64
2023/05/24 02:04:51;;;;;;;5.78;4.68;;;;;;;;;;4982826;28;20065;-64
2023/05/24 02:07:18;;;;;;;5.55;4.13;;;;;;;;;;4993926;28;20069;-64
2023/05/24 02:09:43;;;;;;;11.18;4.80;;;;;;;;;;5002682;28;20030;-63
2023/05/24 02:12:09;;;;;;;4.82;4.32;;;;;;;;;;4998206;28;20031;-63
2023/05/24 02:14:36;;;;;;;4.68;4.18;;;;;;;;;;4986824;28;20032;-62
2023/05/24 02:17:03;;;;;;;6.22;4.28;;;;;;;;;;4978973;28;20057;-63
2023/05/24 02:19:28;;;;;;;6.90;4.50;;;;;;;;;;4980217;28;20040;-62
2023/05/24 02:21:54;;;;;;;7.05;4.55;;;;;;;;;;4985913;28;20026;-63
2023/05/24 02:24:19;;;;;;;5.00;4.40;;;;;;;;;;5004910;28;20034;-63
2023/05/24 02:26:45;;;;;;;5.15;4.35;;;;;;;;;;4983837;28;20564;-61
2023/05/24 02:29:11;;;;;;;9.52;4.63;;;;;;;;;;4983537;28;20030;-63
2023/05/24 02:31:36;;;;;;;4.90;4.50;;;;;;;;;;5001133;28;20385;-64
2023/05/24 02:34:02;;;;;;;5.32;4.80;;;;;;;;;;4988836;28;20529;-64
2023/05/24 02:36:27;;;;;;;4.32;4.00;;;;;;;;;;4982028;28;20041;-62
2023/05/24 02:38:53;;;;;;;4.88;4.40;;;;;;;;;;5001518;28;20077;-63
2023/05/24 02:41:19;;;;;;;5.13;4.72;;;;;;;;;;4980327;28;20813;-63
2023/05/24 02:43:45;;;;;;;11.35;4.93;;;;;;;;;;4997448;28;20072;-63
2023/05/24 02:46:12;;;;;;;6.15;5.38;;;;;;;;;;4980317;28;20034;-63
2023/05/24 02:48:37;;;;;;;6.82;5.00;;;;;;;;;;4987852;28;20040;-63
2023/05/24 02:51:03;;;;;;;5.30;4.82;;;;;;;;;;5003800;28;20034;-62
2023/05/24 02:53:30;;;;;;;4.88;4.43;;;;;;;;;;4978944;28;20100;-63
2023/05/24 02:55:56;;;;;;;6.32;4.95;;;;;;;;;;4985643;28;20031;-62
2023/05/24 02:58:22;;;;;;;5.05;4.35;;;;;;;;;;4983092;28;20026;-64
2023/05/24 03:00:49;;;;;;;7.70;4.85;;;;;;;;;;4989006;28;20113;-63
2023/05/24 03:03:17;;;;;;;7.10;4.70;;;;;;;;;;5006591;28;20630;-63
2023/05/24 03:05:44;;;;;;;4.75;4.40;;;;;;;;;;4988662;28;20292;-63
2023/05/24 03:08:12;;;;;;;4.93;4.53;;;;;;;;;;4989394;28;20096;-62
2023/05/24 03:10:37;;;;;;;6.72;4.60;;;;;;;;;;4984678;28;20038;-63
2023/05/24 03:13:05;;;;;;;6.10;5.40;;;;;;;;;;4991546;28;20247;-62
2023/05/24 03:15:31;;;;;;;5.70;4.68;;;;;;;;;;4991723;28;20116;-63
2023/05/24 03:17:56;;;;;;;5.43;5.03;;;;;;;;;;4990671;28;20038;-64
2023/05/24 03:20:23;;;;;;;5.30;4.80;;;;;;;;;;4990128;28;20049;-64
2023/05/24 03:22:50;;;;;;;6.90;4.95;;;;;;;;;;4990842;28;20034;-64
2023/05/24 03:25:15;;;;;;;6.68;4.45;;;;;;;;;;4991788;28;20040;-62
2023/05/24 03:27:41;;;;;;;6.28;4.50;;;;;;;;;;4981833;28;20088;-64
2023/05/24 03:30:08;;;;;;;7.15;4.70;;;;;;;;;;4991995;28;20069;-65
2023/05/24 03:32:40;;;;;;;10.20;4.85;;;;;;;;;;5007677;28;20049;-64
2023/05/24 03:35:06;;;;;;;6.20;5.20;;;;;;;;;;4991990;28;20095;-63
2023/05/24 03:37:32;;;;;;;9.65;5.07;;;;;;;;;;4985896;28;20107;-64
2023/05/24 03:39:58;;;;;;;5.38;4.80;;;;;;;;;;4988383;28;20034;-63
2023/05/24 03:42:37;;;;;;;11.25;5.10;;;;;;;;;;4985197;28;20038;-64
2023/05/24 03:45:06;;;;;;;5.05;4.70;;;;;;;;;;4986492;28;20406;-64
2023/05/24 03:47:31;;;;;;;5.75;4.63;;;;;;;;;;4981421;28;20041;-65
2023/05/24 03:49:57;;;;;;;5.07;4.68;;;;;;;;;;4984738;28;20049;-64
2023/05/24 03:52:24;;;;;;;6.75;5.05;;;;;;;;;;4988929;28;20042;-64
2023/05/24 03:54:49;;;;;;;9.18;6.38;;;;;;;;;;4989570;28;20040;-64
2023/05/24 03:57:15;;;;;;;5.72;4.93;;;;;;;;;;5002776;28;20034;-64
2023/05/24 03:59:40;;;;;;;10.32;5.45;;;;;;;;;;4993382;28;20100;-64
2023/05/24 04:02:06;;;;;;;9.35;5.10;;;;;;;;;;4989422;28;20029;-63
2023/05/24 04:04:32;;;;;;;5.30;4.82;;;;;;;;;;4991949;28;20478;-66
2023/05/24 04:06:58;;;;;;;7.05;4.70;;;;;;;;;;4992758;28;20038;-65
2023/05/24 04:09:24;;;;;;;10.45;5.22;;;;;;;;;;5007851;28;20470;-63
2023/05/24 04:11:50;;;;;;;5.45;4.95;;;;;;;;;;4985809;28;20041;-65
2023/05/24 04:14:15;;;;;;;6.45;5.03;;;;;;;;;;4988709;28;20092;-64
2023/05/24 04:16:43;;;;;;;5.75;5.20;;;;;;;;;;4987856;28;20045;-64
2023/05/24 04:19:10;;;;;;;5.75;4.82;;;;;;;;;;4989596;28;20026;-65
2023/05/24 04:21:36;;;;;;;5.32;4.70;;;;;;;;;;5004151;28;20046;-65
2023/05/24 04:24:03;;;;;;;5.38;4.88;;;;;;;;;;4985421;28;20041;-65
2023/05/24 04:26:29;;;;;;;6.88;5.60;;;;;;;;;;4985652;28;20042;-65
2023/05/24 04:28:55;;;;;;;7.15;4.80;;;;;;;;;;4984761;28;20056;-65
2023/05/24 04:31:21;;;;;;;6.32;4.93;;;;;;;;;;4999027;28;20037;-64
2023/05/24 04:33:48;;;;;;;6.22;5.60;;;;;;;;;;4999098;28;20048;-65
2023/05/24 04:36:15;;;;;;;5.63;5.13;;;;;;;;;;4985240;28;20042;-63
2023/05/24 04:38:40;;;;;;;6.05;5.43;;;;;;;;;;4999994;28;20095;-64
2023/05/24 04:41:06;;;;;;;5.97;5.45;;;;;;;;;;5001328;28;20038;-64
2023/05/24 04:43:33;;;;;;;6.32;5.72;;;;;;;;;;5002178;28;20109;-63
2023/05/24 04:45:59;;;;;;;11.45;5.90;;;;;;;;;;5008254;28;20570;-63
2023/05/24 04:48:25;;;;;;;6.22;5.10;;;;;;;;;;5007855;28;20040;-65
2023/05/24 04:50:51;;;;;;;5.63;5.10;;;;;;;;;;5005211;28;20033;-64
2023/05/24 04:53:18;;;;;;;6.13;5.53;;;;;;;;;;5001751;28;20034;-63
2023/05/24 04:55:43;;;;;;;6.95;6.28;;;;;;;;;;5003390;28;20038;-64
2023/05/24 04:58:09;;;;;;;6.65;6.00;;;;;;;;;;5002091;28;20033;-63
2023/05/24 05:00:34;;;;;;;8.05;5.85;;;;;;;;;;5003931;28;20038;-64
2023/05/24 05:03:01;;;;;;;10.43;5.97;;;;;;;;;;5001248;28;20728;-64
2023/05/24 05:05:26;;;;;;;5.60;5.18;;;;;;;;;;5006918;28;20505;-64
2023/05/24 05:07:52;;;;;;;6.63;6.00;;;;;;;;;;4998411;28;20030;-63
2023/05/24 05:10:17;;;;;;;6.72;5.45;;;;;;;;;;5002152;28;20037;-64
2023/05/24 05:12:43;;;;;;;8.20;5.05;;;;;;;;;;4999845;28;20052;-63
2023/05/24 05:15:09;;;;;;;8.98;6.03;;;;;;;;;;5003296;28;20118;-64
2023/05/24 05:17:35;;;;;;;5.40;4.90;;;;;;;;;;4998191;28;20067;-63
2023/05/24 05:20:02;;;;;;;6.10;5.57;;;;;;;;;;5003165;28;20313;-65
2023/05/24 05:22:28;;;;;;;6.90;5.13;;;;;;;;;;4997131;28;20040;-64
2023/05/24 05:24:53;;;;;;;8.88;5.97;;;;;;;;;;5001324;28;20038;-64
2023/05/24 05:27:19;;;;;;;5.28;4.88;;;;;;;;;;5000662;28;20030;-65
2023/05/24 05:29:45;;;;;;;6.25;4.90;;;;;;;;;;5001017;28;20551;-65
2023/05/24 05:32:10;;;;;;;7.80;5.15;;;;;;;;;;4999491;28;20040;-64
2023/05/24 05:34:36;;;;;;;8.23;5.57;;;;;;;;;;5001769;28;20029;-65
2023/05/24 05:37:01;;;;;;;5.97;5.57;;;;;;;;;;5007433;28;20486;-64
2023/05/24 05:39:27;;;;;;;7.40;5.93;;;;;;;;;;5002120;28;20053;-65
2023/05/24 05:41:53;;;;;;;6.22;5.40;;;;;;;;;;4997556;28;20036;-64
2023/05/24 05:44:18;;;;;;;6.05;5.40;;;;;;;;;;4996478;28;20145;-64
2023/05/24 05:46:44;;;;;;;7.55;6.13;;;;;;;;;;5003715;28;20074;-64
2023/05/24 05:49:11;;;;;;;7.53;5.00;;;;;;;;;;4999124;28;20132;-65
2023/05/24 05:51:37;;;;;;;10.52;4.93;;;;;;;;;;5003522;28;20034;-65
2023/05/24 05:54:04;;;;;;;7.00;6.30;;;;;;;;;;5001105;28;20032;-65
2023/05/24 05:56:30;;;;;;;9.75;5.40;;;;;;;;;;5000856;28;20151;-65
2023/05/24 05:58:55;;;;;;;6.13;5.63;;;;;;;;;;5003766;28;20447;-65
2023/05/24 06:01:22;;;;;;;6.65;5.60;;;;;;;;;;4998092;28;20034;-65
2023/05/24 06:03:47;;;;;;;7.43;5.93;;;;;;;;;;5003137;28;20235;-65
2023/05/24 06:06:13;;;;;;;7.13;5.65;;;;;;;;;;4999895;28;20068;-65
2023/05/24 06:08:39;;;;;;;7.35;5.93;;;;;;;;;;4999620;28;20057;-65
2023/05/24 06:11:05;;;;;;;6.63;5.38;;;;;;;;;;5002358;28;20049;-64
2023/05/24 06:13:31;;;;;;;11.20;5.78;;;;;;;;;;4975510;28;20313;-65
2023/05/24 06:15:57;;;;;;;7.25;5.45;;;;;;;;;;5005275;28;20101;-65
2023/05/24 06:18:24;;;;;;;6.70;5.20;;;;;;;;;;4999399;28;20026;-65
2023/05/24 06:20:50;;;;;;;8.50;5.75;;;;;;;;;;4999745;28;20100;-65
2023/05/24 06:23:15;;;;;;;5.95;5.38;;;;;;;;;;5004123;28;20030;-65
2023/05/24 06:25:42;;;;;;;6.75;5.65;;;;;;;;;;4998237;28;20134;-64
2023/05/24 06:28:09;;;;;;;11.70;5.88;;;;;;;;;;4996936;28;20125;-64
2023/05/24 06:30:34;;;;;;;5.45;4.95;;;;;;;;;;5007090;28;20088;-63
2023/05/24 06:33:01;;;;;;;5.47;5.10;;;;;;;;;;5001932;28;20046;-64
2023/05/24 06:35:26;;;;;;;6.57;5.88;;;;;;;;;;5007624;28;20033;-64
2023/05/24 06:37:52;;;;;;;7.20;5.18;;;;;;;;;;5009665;28;20311;-64
2023/05/24 06:40:18;;;;;;;6.00;5.32;;;;;;;;;;5004193;28;20038;-64
2023/05/24 06:42:43;;;;;;;6.35;5.03;;;;;;;;;;5002729;28;20019;-64
2023/05/24 06:45:09;;;;;;;5.63;5.00;;;;;;;;;;4979475;28;20481;-64
2023/05/24 06:47:35;;;;;;;19.00;6.15;;;;;;;;;;5006764;28;20044;-65
2023/05/24 06:50:03;;;;;;;6.03;5.43;;;;;;;;;;4998620;28;20532;-65
2023/05/24 06:52:28;;;;;;;8.52;5.38;;;;;;;;;;4982375;28;20043;-64
2023/05/24 06:54:54;;;;;;;6.03;5.53;;;;;;;;;;5001576;28;20034;-65
2023/05/24 06:57:20;;;;;;;8.65;5.72;;;;;;;;;;5001008;28;20117;-64
2023/05/24 06:59:46;;;;;;;11.57;5.55;;;;;;;;;;5005062;28;20504;-64
2023/05/24 07:02:12;;;;;;;13.60;5.70;;;;;;;;;;4983649;28;20041;-64
2023/05/24 07:04:39;;;;;;;5.75;5.22;;;;;;;;;;5005572;28;20125;-65
2023/05/24 07:07:06;;;;;;;7.05;5.65;;;;;;;;;;4996102;28;20398;-65
2023/05/24 07:09:32;;;;;;;6.07;5.38;;;;;;;;;;5003316;28;20065;-65
2023/05/24 07:11:58;;;;;;;9.43;5.57;;;;;;;;;;4982961;28;20080;-63
2023/05/24 07:14:26;;;;;;;5.82;5.32;;;;;;;;;;5001245;28;20113;-65
2023/05/24 07:16:53;;;;;;;6.38;5.78;;;;;;;;;;4998190;28;20425;-65
2023/05/24 07:19:20;;;;;;;8.63;5.25;;;;;;;;;;5007769;28;20037;-64
2023/05/24 07:21:46;;;;;;;13.45;6.05;;;;;;;;;;5006652;28;20034;-65
2023/05/24 07:24:12;;;;;;;8.23;5.03;;;;;;;;;;5008948;28;20026;-65
2023/05/24 07:26:38;;;;;;;5.40;4.97;;;;;;;;;;4997427;28;20057;-65
2023/05/24 07:29:03;;;;;;;6.47;5.50;;;;;;;;;;5008678;28;20034;-65
2023/05/24 07:31:31;;;;;;;7.32;5.53;;;;;;;;;;5000384;28;21092;-65
2023/05/24 07:33:57;;;;;;;5.93;5.38;;;;;;;;;;5006465;28;20038;-65
2023/05/24 07:36:24;;;;;;;5.72;5.22;;;;;;;;;;5004546;28;20476;-64
2023/05/24 07:38:50;;;;;;;8.38;5.68;;;;;;;;;;5005536;28;20034;-65
2023/05/24 07:41:16;;;;;;;8.73;5.57;;;;;;;;;;5001957;28;20030;-64
2023/05/24 07:43:41;;;;;;;6.55;5.05;;;;;;;;;;4999214;28;20373;-64
2023/05/24 07:46:09;;;;;;;6.15;5.53;;;;;;;;;;5006115;28;20037;-64
2023/05/24 07:48:34;;;;;;;7.05;5.10;;;;;;;;;;5007430;28;20030;-64
2023/05/24 07:51:00;;;;;;;6.15;5.20;;;;;;;;;;5004707;28;20187;-64
2023/05/24 07:53:26;;;;;;;6.35;5.43;;;;;;;;;;4985341;28;20113;-63
2023/05/24 07:55:51;;;;;;;8.15;5.25;;;;;;;;;;5005550;28;20038;-64
2023/05/24 07:58:20;;;;;;;10.10;5.18;;;;;;;;;;4998234;28;20546;-64
2023/05/24 08:00:45;;;;;;;6.40;5.00;;;;;;;;;;5008579;28;20155;-65
2023/05/24 08:03:13;;;;;;;8.25;4.78;;;;;;;;;;5000954;28;20303;-64
2023/05/24 08:05:39;;;;;;;7.78;5.28;;;;;;;;;;5007071;28;20045;-65
2023/05/24 08:08:04;;;;;;;8.75;5.57;;;;;;;;;;5000117;28;20046;-64
2023/05/24 08:10:31;;;;;;;9.20;5.50;;;;;;;;;;5004552;28;20060;-65
2023/05/24 08:12:56;;;;;;;7.20;5.25;;;;;;;;;;4998016;28;20038;-65
2023/05/24 08:15:22;;;;;;;7.90;5.60;;;;;;;;;;5001887;28;20477;-65
2023/05/24 08:17:47;;;;;;;9.27;5.05;;;;;;;;;;5006558;28;20394;-65
2023/05/24 08:20:14;;;;;;;6.05;5.45;;;;;;;;;;4998854;28;20234;-64
2023/05/24 08:22:41;;;;;;;10.48;6.00;;;;;;;;;;5006522;28;20030;-65
2023/05/24 08:25:07;;;;;;;11.45;5.85;;;;;;;;;;5000158;28;20030;-65
2023/05/24 08:27:32;;;;;;;5.72;5.22;;;;;;;;;;4996743;28;20030;-65
2023/05/24 08:29:58;;;;;;;6.15;5.55;;;;;;;;;;4998189;28;20038;-64
2023/05/24 08:32:23;;;;;;;9.35;6.03;;;;;;;;;;4997099;28;20046;-64
2023/05/24 08:34:49;;;;;;;9.25;5.28;;;;;;;;;;5005858;28;20406;-64
2023/05/24 08:37:18;;;;;;;9.77;6.13;;;;;;;;;;5006153;28;20044;-64
2023/05/24 08:39:44;;;;;;;8.60;5.78;;;;;;;;;;4999431;28;20504;-64
2023/05/24 08:42:09;;;;;;;12.38;6.05;;;;;;;;;;5000576;28;20037;-64
2023/05/24 08:44:44;;;;;;;8.48;6.30;;;;;;;;;;4998683;28;20703;-64
2023/05/24 08:47:10;;;;;;;6.05;4.93;;;;;;;;;;5000245;28;20044;-65
2023/05/24 08:49:37;;;;;;;9.57;4.78;;;;;;;;;;5000415;28;20409;-66
2023/05/24 08:52:04;;;;;;;9.13;5.50;;;;;;;;;;5006826;28;20125;-65
2023/05/24 08:54:30;;;;;;;9.43;5.50;;;;;;;;;;4996878;28;20446;-65
2023/05/24 08:56:56;;;;;;;9.30;5.63;;;;;;;;;;4995237;28;20061;-65
2023/05/24 08:59:23;;;;;;;7.45;5.18;;;;;;;;;;4996018;28;20034;-65
2023/05/24 09:01:52;;;;;;;12.63;6.18;;;;;;;;;;5000417;28;20049;-65
2023/05/24 09:04:19;;;;;;;7.13;6.40;;;;;;;;;;5000059;28;20478;-65
2023/05/24 09:06:46;;;;;;;7.18;5.53;;;;;;;;;;5002956;28;20077;-65
2023/05/24 09:09:16;;;;;;;6.82;5.57;;;;;;;;;;5003677;28;20493;-64
2023/05/24 09:11:46;;;;;;;9.75;6.18;;;;;;;;;;4999432;28;20045;-65
2023/05/24 09:14:12;;;;;;;13.07;6.82;;;;;;;;;;5003283;28;20029;-65
2023/05/24 09:16:38;;;;;;;12.10;6.68;;;;;;;;;;5003383;28;20037;-65
2023/05/24 09:19:04;;;;;;;6.22;5.30;;;;;;;;;;4997607;28;20038;-65
2023/05/24 09:21:29;;;;;;;6.78;4.95;;;;;;;;;;5007034;28;20049;-65
2023/05/24 09:23:56;;;;;;;8.05;5.47;;;;;;;;;;5004027;28;20532;-65
2023/05/24 09:26:23;;;;;;;8.73;5.80;;;;;;;;;;4999688;28;20038;-64
2023/05/24 09:28:50;;;;;;;6.35;4.85;;;;;;;;;;5001688;28;20120;-65
2023/05/24 09:31:16;;;;;;;6.05;5.18;;;;;;;;;;5002224;28;20129;-65
2023/05/24 09:33:41;;;;;;;7.72;5.05;;;;;;;;;;5007395;28;20038;-65
2023/05/24 09:36:07;;;;;;;7.05;4.72;;;;;;;;;;5000995;28;20037;-65
2023/05/24 09:38:34;;;;;;;7.18;5.30;;;;;;;;;;4997526;28;20045;-64
2023/05/24 09:41:04;;;;;;;5.70;5.05;;;;;;;;;;5002478;28;20049;-65
2023/05/24 09:43:31;;;;;;;6.22;5.00;;;;;;;;;;5003694;28;20042;-65
2023/05/24 09:45:58;;;;;;;6.85;6.07;;;;;;;;;;4998543;28;20034;-65
2023/05/24 09:48:25;;;;;;;8.30;5.10;;;;;;;;;;5006404;28;20029;-65
2023/05/24 09:51:08;;;;;;;5.90;5.07;;;;;;;;;;4995585;28;20042;-65
2023/05/24 09:53:35;;;;;;;8.07;5.38;;;;;;;;;;4998004;28;20042;-65
2023/05/24 09:56:05;;;;;;;7.30;4.70;;;;;;;;;;5000619;28;20041;-65
2023/05/24 09:58:33;;;;;;;6.95;5.55;;;;;;;;;;4994718;28;20038;-65
2023/05/24 10:01:07;;;;;;;7.47;5.68;;;;;;;;;;5000976;28;20381;-65
2023/05/24 10:03:34;;;;;;;5.90;5.03;;;;;;;;;;4998639;28;20490;-65
2023/05/24 10:06:03;;;;;;;7.35;5.07;;;;;;;;;;5006763;28;20055;-65
2023/05/24 10:08:30;;;;;;;6.32;5.30;;;;;;;;;;5000454;28;20088;-65
2023/05/24 10:10:56;;;;;;;10.45;5.43;;;;;;;;;;4999321;28;20038;-65
2023/05/24 10:13:22;;;;;;;8.65;4.93;;;;;;;;;;5000098;28;20121;-65
2023/05/24 10:15:47;;;;;;;5.60;5.03;;;;;;;;;;4999568;28;20029;-65
2023/05/24 10:18:13;;;;;;;9.75;5.38;;;;;;;;;;4997811;28;20041;-65
2023/05/24 10:20:39;;;;;;;6.80;5.43;;;;;;;;;;5000152;28;20084;-65
2023/05/24 10:23:08;;;;;;;10.93;5.68;;;;;;;;;;4995531;28;20034;-65
2023/05/24 10:25:36;;;;;;;6.03;5.07;;;;;;;;;;4981864;28;20495;-65
2023/05/24 10:28:07;;;;;;;5.85;5.35;;;;;;;;;;4997226;28;20070;-65
2023/05/24 10:30:36;;;;;;;6.43;5.40;;;;;;;;;;5005290;28;20033;-65
2023/05/24 10:33:05;;;;;;;10.52;5.65;;;;;;;;;;4998596;28;20046;-65
2023/05/24 10:35:32;;;;;;;5.90;5.40;;;;;;;;;;5003537;28;20478;-65
2023/05/24 10:37:58;;;;;;;7.38;5.13;;;;;;;;;;4994511;28;20050;-63
2023/05/24 10:40:24;;;;;;;7.95;5.80;;;;;;;;;;4995687;28;20107;-65
2023/05/24 10:42:50;;;;;;;8.70;5.78;;;;;;;;;;4995053;28;20133;-65
2023/05/24 10:45:38;;;;;;;10.43;5.68;;;;;;;;;;5005728;28;20034;-65
2023/05/24 10:48:12;;;;;;;10.75;5.70;;;;;;;;;;4998905;28;20034;-65
2023/05/24 10:50:39;;;;;;;10.48;5.65;;;;;;;;;;5006270;28;20121;-65
2023/05/24 10:53:14;;;;;;;9.15;5.68;;;;;;;;;;4997393;28;20034;-65
2023/05/24 10:55:57;;;;;;;7.50;5.68;;;;;;;;;;4999653;28;20041;-65
2023/05/24 10:58:42;;;;;;;10.50;5.93;;;;;;;;;;4999846;28;20540;-65
2023/05/24 11:01:34;;;;;;;8.27;6.28;;;;;;;;;;5006176;28;20034;-65
2023/05/24 11:04:07;;;;;;;6.05;5.35;;;;;;;;;;5001117;28;20066;-65
2023/05/24 11:06:54;;;;;;;14.73;6.50;;;;;;;;;;5003284;28;20042;-65
2023/05/24 11:09:21;;;;;;;6.88;6.10;;;;;;;;;;4984080;28;20065;-64
2023/05/24 11:11:49;;;;;;;8.23;5.95;;;;;;;;;;5002714;28;20116;-65
2023/05/24 11:14:19;;;;;;;7.20;5.70;;;;;;;;;;5003360;28;20034;-65
2023/05/24 11:16:45;;;;;;;8.55;5.93;;;;;;;;;;5002434;28;20034;-65
2023/05/24 11:19:13;;;;;;;11.18;6.20;;;;;;;;;;5004839;28;20038;-65
2023/05/24 11:21:42;;;;;;;11.07;6.30;;;;;;;;;;5000380;28;20098;-65
2023/05/24 11:24:08;;;;;;;10.00;6.80;;;;;;;;;;5004733;28;20037;-65
2023/05/24 11:26:34;;;;;;;7.47;5.22;;;;;;;;;;5000616;28;20034;-65
2023/05/24 11:29:00;;;;;;;5.80;5.25;;;;;;;;;;5003563;28;20030;-65
2023/05/24 11:31:29;;;;;;;5.82;5.07;;;;;;;;;;5003002;28;21003;-65
2023/05/24 11:33:54;;;;;;;8.70;5.40;;;;;;;;;;5003234;28;20050;-65
2023/05/24 11:36:20;;;;;;;7.15;6.18;;;;;;;;;;4998164;28;20042;-65
2023/05/24 11:38:48;;;;;;;9.77;6.00;;;;;;;;;;5003260;28;20214;-65
2023/05/24 11:41:14;;;;;;;11.73;6.38;;;;;;;;;;5004072;28;20091;-65
2023/05/24 11:43:40;;;;;;;6.38;5.30;;;;;;;;;;4997172;28;20030;-65
2023/05/24 11:46:06;;;;;;;12.18;6.07;;;;;;;;;;5003221;28;20490;-65
2023/05/24 11:48:32;;;;;;;8.45;5.65;;;;;;;;;;5003342;28;20065;-65
2023/05/24 11:50:58;;;;;;;8.60;5.53;;;;;;;;;;5001071;28;20042;-65
2023/05/24 11:53:24;;;;;;;5.78;4.85;;;;;;;;;;4997234;28;20046;-65
2023/05/24 11:55:53;;;;;;;13.18;5.88;;;;;;;;;;5007202;28;20088;-65
2023/05/24 11:58:25;;;;;;;12.10;5.90;;;;;;;;;;5002282;28;20061;-65
2023/05/24 12:00:51;;;;;;;10.32;5.85;;;;;;;;;;5007109;28;20030;-65
2023/05/24 12:03:17;;;;;;;5.95;5.35;;;;;;;;;;5003050;28;20032;-65
2023/05/24 12:05:43;;;;;;;7.65;6.28;;;;;;;;;;5001403;28;20087;-65
2023/05/24 12:08:17;;;;;;;10.45;5.57;;;;;;;;;;5001731;28;20387;-65
2023/05/24 12:10:43;;;;;;;8.75;5.85;;;;;;;;;;5001273;28;20409;-64
2023/05/24 12:13:25;;;;;;;10.07;5.95;;;;;;;;;;4999227;28;20038;-65
2023/05/24 12:15:52;;;;;;;10.52;5.50;;;;;;;;;;5002755;28;20038;-65
2023/05/24 12:18:22;;;;;;;10.25;5.70;;;;;;;;;;5003961;28;20040;-65
2023/05/24 12:20:49;;;;;;;8.05;5.15;;;;;;;;;;5000305;28;20057;-65
2023/05/24 12:23:20;;;;;;;6.05;5.45;;;;;;;;;;5003978;28;20122;-65
2023/05/24 12:25:46;;;;;;;7.63;5.13;;;;;;;;;;5003001;28;20050;-65
2023/05/24 12:28:12;;;;;;;6.60;5.68;;;;;;;;;;5001931;28;20581;-65
2023/05/24 12:30:43;;;;;;;9.73;5.32;;;;;;;;;;5005967;28;20034;-65
2023/05/24 12:33:10;;;;;;;9.07;5.70;;;;;;;;;;5004042;28;20034;-65
2023/05/24 12:35:36;;;;;;;7.40;5.15;;;;;;;;;;5000805;28;20590;-65
2023/05/24 12:38:02;;;;;;;9.30;5.40;;;;;;;;;;4998093;28;20100;-65
2023/05/24 12:40:32;;;;;;;7.00;4.60;;;;;;;;;;5001936;28;20038;-65
2023/05/24 12:42:58;;;;;;;6.72;5.55;;;;;;;;;;4997729;28;20080;-65
2023/05/24 12:45:27;;;;;;;7.32;5.35;;;;;;;;;;4998718;28;20421;-65
2023/05/24 12:47:53;;;;;;;5.40;4.57;;;;;;;;;;4980804;28;20042;-65
2023/05/24 12:50:21;;;;;;;5.07;4.68;;;;;;;;;;5002198;28;20046;-65
2023/05/24 12:52:51;;;;;;;11.02;5.38;;;;;;;;;;4993750;28;20061;-65
2023/05/24 12:55:18;;;;;;;6.57;5.05;;;;;;;;;;4999989;28;20026;-65
2023/05/24 12:57:51;;;;;;;7.38;5.32;;;;;;;;;;4996427;28;20034;-65
2023/05/24 13:00:18;;;;;;;6.07;5.15;;;;;;;;;;4998788;28;20070;-63
2023/05/24 13:02:44;;;;;;;5.30;4.90;;;;;;;;;;4999620;28;20034;-65
2023/05/24 13:05:10;;;;;;;5.20;4.70;;;;;;;;;;5000617;28;20085;-65
2023/05/24 13:07:36;;;;;;;6.20;4.70;;;;;;;;;;4998037;28;20042;-65
2023/05/24 13:10:02;;;;;;;7.80;5.25;;;;;;;;;;4998808;28;20038;-65
2023/05/24 13:12:28;;;;;;;7.30;5.60;;;;;;;;;;4998244;28;20039;-65
2023/05/24 13:14:53;;;;;;;9.55;5.40;;;;;;;;;;5001820;28;20045;-65
2023/05/24 13:17:19;;;;;;;5.13;4.72;;;;;;;;;;4975536;28;20034;-65
2023/05/24 13:19:46;;;;;;;8.48;5.25;;;;;;;;;;4996494;28;20049;-65
2023/05/24 13:22:12;;;;;;;5.88;5.22;;;;;;;;;;5002038;28;20034;-65
2023/05/24 13:24:37;;;;;;;5.30;4.80;;;;;;;;;;5004219;28;20401;-65
2023/05/24 13:27:03;;;;;;;5.22;4.82;;;;;;;;;;4995783;28;20257;-65
2023/05/24 13:29:29;;;;;;;5.32;4.82;;;;;;;;;;5004843;28;20076;-64
2023/05/24 13:31:55;;;;;;;5.15;4.75;;;;;;;;;;4995626;28;20066;-64
2023/05/24 13:34:23;;;;;;;8.05;5.22;;;;;;;;;;5000591;28;20042;-64
2023/05/24 13:36:49;;;;;;;8.13;5.07;;;;;;;;;;5000227;28;20476;-64
2023/05/24 13:39:14;;;;;;;5.57;5.03;;;;;;;;;;4999729;28;20038;-64
2023/05/24 13:41:41;;;;;;;7.30;4.80;;;;;;;;;;4998260;28;20336;-64
2023/05/24 13:44:06;;;;;;;5.30;4.63;;;;;;;;;;4981964;28;20646;-64
2023/05/24 13:46:32;;;;;;;6.47;5.00;;;;;;;;;;4997998;28;20038;-64
2023/05/24 13:48:58;;;;;;;12.98;4.85;;;;;;;;;;4999346;28;20490;-64
2023/05/24 13:51:25;;;;;;;8.48;5.20;;;;;;;;;;5001344;28;20367;-64
2023/05/24 13:53:51;;;;;;;5.50;5.00;;;;;;;;;;4996962;28;20214;-64
2023/05/24 13:56:17;;;;;;;9.60;5.65;;;;;;;;;;4997964;28;20490;-63
2023/05/24 13:58:43;;;;;;;6.38;4.70;;;;;;;;;;4990123;28;20052;-64
2023/05/24 14:01:09;;;;;;;6.00;5.03;;;;;;;;;;5005531;28;20044;-64
2023/05/24 14:03:35;;;;;;;5.50;5.00;;;;;;;;;;5003013;28;20038;-64
2023/05/24 14:06:01;;;;;;;5.07;4.60;;;;;;;;;;5002389;28;20063;-62
2023/05/24 14:08:26;;;;;;;5.43;4.82;;;;;;;;;;4999862;28;20069;-64
2023/05/24 14:10:52;;;;;;;6.57;4.80;;;;;;;;;;5000313;28;20041;-64
2023/05/24 14:13:18;;;;;;;5.78;4.72;;;;;;;;;;4999539;28;20038;-64
2023/05/24 14:15:45;;;;;;;6.10;5.13;;;;;;;;;;4997797;28;20045;-64
2023/05/24 14:18:11;;;;;;;6.47;5.15;;;;;;;;;;4997583;28;20034;-64
2023/05/24 14:20:38;;;;;;;7.18;4.80;;;;;;;;;;5003009;28;20478;-64
2023/05/24 14:23:06;;;;;;;5.45;4.97;;;;;;;;;;5004585;28;20088;-64
2023/05/24 14:25:31;;;;;;;4.95;4.45;;;;;;;;;;4994088;28;20394;-64
2023/05/24 14:27:58;;;;;;;5.63;4.45;;;;;;;;;;5000268;28;20059;-64
2023/05/24 14:30:25;;;;;;;5.10;4.63;;;;;;;;;;4995916;28;20046;-64
2023/05/24 14:32:50;;;;;;;5.75;5.20;;;;;;;;;;4995303;28;20125;-64
2023/05/24 14:35:16;;;;;;;6.00;5.03;;;;;;;;;;5001234;28;20138;-64
2023/05/24 14:37:41;;;;;;;5.30;4.82;;;;;;;;;;4997335;28;20045;-63
2023/05/24 14:40:08;;;;;;;7.10;5.20;;;;;;;;;;5002062;28;20034;-64